05MO weather

Portageville Community Heliport
Portageville, Missouri, United States

Public forecast

Using degrees Fahrenheit for public forecast. Weather courtesy of forecast.io.

Closest aviation weather report (METAR) to Portageville Community Heliport

Closest report is Kennett Memorial Airport, 21.1 nm (39.2 km) SW. Retrieved 2020/05/25 21:35 UTC (4 minutes ago):

KTKX 252135Z AUTO 18010G16KT 10SM CLR 33/19 A2984 RMK AO2

Closest aviation forecast (TAF) to Portageville Community Heliport

Forecast is more than 6 hours old.

Closest forecast is Cape Girardeau Regional Airport, 48.1 nm (89.0 km) N. Retrieved 2020/05/25 12:27 UTC (9 hours ago):

TAF KCGI 251124Z 2512/2612 14005KT P6SM FEW120 FM251700 17009KT P6SM VCTS SCT045CB BKN150 FM260000 13006KT P6SM SCT150